createdAt,value
2023-05-23T00:00:14.190Z,100395.16
2023-05-23T00:03:04.581Z,100394.00
2023-05-23T00:05:32.697Z,100391.41
2023-05-23T00:08:01.844Z,100391.56
2023-05-23T00:10:29.871Z,100390.94
2023-05-23T00:12:58.230Z,100389.22
2023-05-23T00:15:26.471Z,100398.13
2023-05-23T00:17:54.663Z,100387.69
2023-05-23T00:20:23.022Z,100384.19
2023-05-23T00:22:50.810Z,100393.63
2023-05-23T00:25:22.056Z,100385.06
2023-05-23T00:27:49.804Z,100381.22
2023-05-23T00:30:18.239Z,100380.41
2023-05-23T00:32:46.034Z,100381.69
2023-05-23T00:35:14.100Z,100378.91
2023-05-23T00:37:41.783Z,100375.81
2023-05-23T00:40:10.283Z,100379.56
2023-05-23T00:42:37.992Z,100380.09
2023-05-23T00:45:07.197Z,100377.06
2023-05-23T00:47:35.236Z,100337.97
2023-05-23T00:50:04.840Z,100380.41
2023-05-23T00:52:32.960Z,100379.28
2023-05-23T00:55:00.967Z,100379.47
2023-05-23T00:57:29.308Z,100371.47
2023-05-23T00:59:57.398Z,100379.09
2023-05-23T01:02:25.614Z,100377.53
2023-05-23T01:04:55.633Z,100382.81
2023-05-23T01:07:23.607Z,100376.81
2023-05-23T01:09:51.698Z,100374.44
2023-05-23T01:12:41.135Z,100374.28
2023-05-23T01:15:14.820Z,100384.06
2023-05-23T01:17:56.745Z,100384.94
2023-05-23T01:20:54.118Z,100387.72
2023-05-23T01:23:46.127Z,100389.69
2023-05-23T01:26:29.269Z,100384.47
2023-05-23T01:29:22.674Z,100382.75
2023-05-23T01:31:54.955Z,100376.69
2023-05-23T01:34:23.183Z,100382.91
2023-05-23T01:36:56.202Z,100370.84
2023-05-23T01:39:24.248Z,100377.84
2023-05-23T01:41:54.191Z,100374.56
2023-05-23T01:44:22.511Z,100365.91
2023-05-23T01:46:50.770Z,100373.78
2023-05-23T01:49:20.636Z,100375.38
2023-05-23T01:51:49.019Z,100372.84
2023-05-23T01:54:19.864Z,100366.88
2023-05-23T01:56:49.966Z,100364.34
2023-05-23T01:59:17.873Z,100368.63
2023-05-23T02:01:46.341Z,100367.88
2023-05-23T02:04:14.766Z,100370.56
2023-05-23T02:06:42.719Z,100375.03
2023-05-23T02:09:14.149Z,100359.41
2023-05-23T02:11:42.188Z,100365.56
2023-05-23T02:14:11.300Z,100362.75
2023-05-23T02:16:39.419Z,100353.25
2023-05-23T02:19:07.279Z,100350.50
2023-05-23T02:21:35.891Z,100340.00
2023-05-23T02:24:04.523Z,100351.97
2023-05-23T02:26:32.763Z,100346.84
2023-05-23T02:29:00.948Z,100338.31
2023-05-23T02:31:29.277Z,100341.03
2023-05-23T02:33:57.079Z,100341.25
2023-05-23T02:36:25.208Z,100337.97
2023-05-23T02:38:52.927Z,100333.84
2023-05-23T02:41:21.523Z,100338.94
2023-05-23T02:43:49.418Z,100341.78
2023-05-23T02:46:18.200Z,100332.25
2023-05-23T02:48:46.027Z,100321.81
2023-05-23T02:51:14.016Z,100325.16
2023-05-23T02:53:41.930Z,100328.47
2023-05-23T02:56:10.076Z,100332.75
2023-05-23T02:58:37.758Z,100334.41
2023-05-23T03:01:07.827Z,100334.31
2023-05-23T03:03:36.596Z,100327.19
2023-05-23T03:06:07.530Z,100330.63
2023-05-23T03:08:35.476Z,100324.97
2023-05-23T03:11:03.508Z,100324.06
2023-05-23T03:13:31.432Z,100324.84
2023-05-23T03:15:59.494Z,100325.09
2023-05-23T03:18:27.516Z,100323.56
2023-05-23T03:20:57.069Z,100321.66
2023-05-23T03:23:25.240Z,100325.94
2023-05-23T03:25:53.390Z,100319.50
2023-05-23T03:28:22.001Z,100325.59
2023-05-23T03:30:50.143Z,100324.81
2023-05-23T03:33:17.962Z,100324.13
2023-05-23T03:35:46.088Z,100326.34
2023-05-23T03:38:13.989Z,100325.63
2023-05-23T03:40:42.160Z,100323.97
2023-05-23T03:43:10.074Z,100332.53
2023-05-23T03:45:41.896Z,100331.94
2023-05-23T03:48:13.958Z,100332.88
2023-05-23T03:50:43.485Z,100332.53
2023-05-23T03:53:12.726Z,100330.94
2023-05-23T03:55:41.075Z,100331.34
2023-05-23T03:58:08.980Z,100325.91
2023-05-23T04:00:37.239Z,100317.94
2023-05-23T04:03:08.915Z,100318.50
2023-05-23T04:05:37.525Z,100323.63
2023-05-23T04:08:05.432Z,100316.81
2023-05-23T04:10:33.662Z,100321.16
2023-05-23T04:13:01.537Z,100316.22
2023-05-23T04:15:29.656Z,100301.22
2023-05-23T04:18:07.572Z,100314.47
2023-05-23T04:20:35.876Z,100313.03
2023-05-23T04:23:03.799Z,100317.69
2023-05-23T04:25:34.467Z,100312.31
2023-05-23T04:28:11.007Z,100311.13
2023-05-23T04:30:39.170Z,100312.03
2023-05-23T04:33:08.028Z,100309.22
2023-05-23T04:35:39.215Z,100310.19
2023-05-23T04:38:07.577Z,100303.50
2023-05-23T04:40:36.039Z,100307.09
2023-05-23T04:43:42.795Z,100311.94
2023-05-23T04:46:22.198Z,100310.06
2023-05-23T04:48:56.510Z,100313.50
2023-05-23T04:51:25.163Z,100312.13
2023-05-23T04:53:57.169Z,100308.34
2023-05-23T04:56:28.424Z,100310.06
2023-05-23T04:58:56.457Z,100309.34
2023-05-23T05:01:26.246Z,100311.50
2023-05-23T05:03:54.844Z,100307.94
2023-05-23T05:06:23.989Z,100310.00
2023-05-23T05:08:53.139Z,100304.03
2023-05-23T05:11:22.494Z,100307.44
2023-05-23T05:13:50.240Z,100301.88
2023-05-23T05:16:18.374Z,100298.03
2023-05-23T05:18:46.485Z,100293.59
2023-05-23T05:21:14.761Z,100297.50
2023-05-23T05:23:43.673Z,100293.34
2023-05-23T05:26:11.832Z,100294.28
2023-05-23T05:28:39.670Z,100294.09
2023-05-23T05:31:07.922Z,100292.78
2023-05-23T05:33:37.743Z,100302.13
2023-05-23T05:36:16.728Z,100291.63
2023-05-23T05:38:46.286Z,100298.47
2023-05-23T05:41:14.659Z,100295.53
2023-05-23T05:43:49.744Z,100294.94
2023-05-23T05:46:17.812Z,100300.28
2023-05-23T05:48:47.355Z,100298.84
2023-05-23T05:51:17.633Z,100299.31
2023-05-23T05:53:46.448Z,100297.81
2023-05-23T05:56:14.885Z,100305.44
2023-05-23T05:58:42.788Z,100299.88
2023-05-23T06:01:14.702Z,100297.50
2023-05-23T06:03:43.754Z,100303.66
2023-05-23T06:06:12.036Z,100294.50
2023-05-23T06:08:41.633Z,100293.13
2023-05-23T06:11:13.010Z,100283.84
2023-05-23T06:13:40.763Z,100289.63
2023-05-23T06:16:08.955Z,100284.66
2023-05-23T06:18:36.798Z,100285.41
2023-05-23T06:21:04.835Z,100286.44
2023-05-23T06:23:34.577Z,100282.34
2023-05-23T06:26:02.819Z,100271.75
2023-05-23T06:28:30.564Z,100278.06
2023-05-23T06:30:58.808Z,100280.25
2023-05-23T06:33:26.582Z,100277.59
2023-05-23T06:35:54.627Z,100278.31
2023-05-23T06:38:22.680Z,100274.69
2023-05-23T06:40:51.159Z,100272.75
2023-05-23T06:43:19.820Z,100276.13
2023-05-23T06:45:55.093Z,100275.78
2023-05-23T06:48:22.919Z,100276.72
2023-05-23T06:50:52.694Z,100270.59
2023-05-23T06:53:22.175Z,100272.53
2023-05-23T06:55:51.599Z,100274.66
2023-05-23T06:58:25.229Z,100261.31
2023-05-23T07:00:56.925Z,100262.88
2023-05-23T07:03:31.703Z,100256.84
2023-05-23T07:06:04.936Z,100253.72
2023-05-23T07:08:33.036Z,100249.94
2023-05-23T07:11:02.351Z,100235.41
2023-05-23T07:13:37.955Z,100244.34
2023-05-23T07:16:06.368Z,100252.06
2023-05-23T07:18:38.820Z,100251.94
2023-05-23T07:21:07.696Z,100243.16
2023-05-23T07:23:35.484Z,100240.44
2023-05-23T07:26:03.994Z,100251.09
2023-05-23T07:28:42.045Z,100240.47
2023-05-23T07:31:10.194Z,100240.47
2023-05-23T07:33:39.208Z,100234.75
2023-05-23T07:36:10.358Z,100233.88
2023-05-23T07:38:38.200Z,100232.16
2023-05-23T07:41:11.388Z,100233.47
2023-05-23T07:43:41.351Z,100229.41
2023-05-23T07:46:10.141Z,100227.72
2023-05-23T07:48:39.053Z,100226.28
2023-05-23T07:51:07.201Z,100226.69
2023-05-23T07:53:39.995Z,100226.59
2023-05-23T07:56:11.498Z,100230.94
2023-05-23T07:58:41.847Z,100215.94
2023-05-23T08:01:10.144Z,100217.66
2023-05-23T08:03:58.238Z,100209.81
2023-05-23T08:06:33.763Z,100204.34
2023-05-23T08:09:06.841Z,100210.50
2023-05-23T08:11:39.142Z,100209.59
2023-05-23T08:14:07.984Z,100198.84
2023-05-23T08:16:39.389Z,100198.34
2023-05-23T08:19:12.615Z,100195.47
2023-05-23T08:21:41.388Z,100201.09
2023-05-23T08:24:09.403Z,100185.84
2023-05-23T08:26:40.120Z,100198.06
2023-05-23T08:29:11.264Z,100188.72
2023-05-23T08:31:39.404Z,100200.28
2023-05-23T08:34:08.383Z,100197.44
2023-05-23T08:36:40.430Z,100192.34
2023-05-23T08:39:13.842Z,100181.44
2023-05-23T08:41:51.929Z,100179.22
2023-05-23T08:44:19.839Z,100189.03
2023-05-23T08:46:54.081Z,100183.91
2023-05-23T08:49:42.164Z,100176.72
2023-05-23T08:52:14.690Z,100183.25
2023-05-23T08:54:46.274Z,100186.09
2023-05-23T08:57:16.854Z,100174.34
2023-05-23T08:59:51.898Z,100170.75
2023-05-23T09:02:22.518Z,100168.88
2023-05-23T09:04:53.859Z,100160.44
2023-05-23T09:07:28.835Z,100173.03
2023-05-23T09:09:56.700Z,100164.59
2023-05-23T09:12:24.835Z,100161.56
2023-05-23T09:14:52.967Z,100163.63
2023-05-23T09:17:23.971Z,100159.00
2023-05-23T09:19:53.183Z,100143.84
2023-05-23T09:22:29.834Z,100160.38
2023-05-23T09:25:03.143Z,100145.06
2023-05-23T09:27:31.417Z,100151.88
2023-05-23T09:30:05.576Z,100149.53
2023-05-23T09:32:33.810Z,100160.28
2023-05-23T09:35:07.074Z,100160.97
2023-05-23T09:37:40.965Z,100143.31
2023-05-23T09:40:11.074Z,100160.81
2023-05-23T09:42:48.578Z,100158.16
2023-05-23T09:45:17.253Z,100151.41
2023-05-23T09:47:52.723Z,100143.50
2023-05-23T09:50:21.757Z,100154.25
2023-05-23T09:52:51.336Z,100143.06
2023-05-23T09:55:19.649Z,100139.94
2023-05-23T09:57:53.347Z,100147.00
2023-05-23T10:00:21.683Z,100142.66
2023-05-23T10:03:11.549Z,100139.56
2023-05-23T10:05:48.772Z,100149.19
2023-05-23T10:08:31.217Z,100143.88
2023-05-23T10:11:01.685Z,100148.72
2023-05-23T10:13:31.949Z,100130.72
2023-05-23T10:16:38.879Z,100128.66
2023-05-23T10:19:27.328Z,100137.78
2023-05-23T10:22:01.506Z,100126.28
2023-05-23T10:24:30.052Z,100118.84
2023-05-23T10:26:59.412Z,100119.94
2023-05-23T10:29:28.604Z,100121.31
2023-05-23T10:31:57.802Z,100113.59
2023-05-23T10:34:40.575Z,100120.56
2023-05-23T10:37:12.540Z,100121.75
2023-05-23T10:39:46.582Z,100116.69
2023-05-23T10:42:22.361Z,100124.53
2023-05-23T10:44:50.361Z,100115.81
2023-05-23T10:47:30.309Z,100116.50
2023-05-23T10:49:58.344Z,100112.50
2023-05-23T10:52:27.116Z,100119.03
2023-05-23T10:54:56.454Z,100114.38
2023-05-23T10:57:27.929Z,100104.06
2023-05-23T10:59:56.437Z,100118.69
2023-05-23T11:02:29.344Z,100113.34
2023-05-23T11:05:24.470Z,100114.03
2023-05-23T11:08:09.557Z,100109.19
2023-05-23T11:10:59.455Z,100097.41
2023-05-23T11:13:47.767Z,100089.84
2023-05-23T11:16:30.458Z,100101.13
2023-05-23T11:19:17.150Z,100097.38
2023-05-23T11:22:02.200Z,100101.63
2023-05-23T11:24:52.765Z,100083.44
2023-05-23T11:27:36.079Z,100084.09
2023-05-23T11:30:15.864Z,100082.78
2023-05-23T11:32:52.555Z,100080.59
2023-05-23T11:35:21.390Z,100077.25
2023-05-23T11:37:50.105Z,100066.69
2023-05-23T11:40:34.045Z,100075.59
2023-05-23T11:43:05.353Z,100060.78
2023-05-23T11:45:34.424Z,100070.53
2023-05-23T11:48:16.921Z,100065.53
2023-05-23T11:50:53.257Z,100067.72
2023-05-23T11:53:25.504Z,100069.88
2023-05-23T11:56:00.648Z,100057.63
2023-05-23T11:58:36.699Z,100063.91
2023-05-23T12:01:09.756Z,100063.47
2023-05-23T12:03:49.310Z,100060.16
2023-05-23T12:06:20.810Z,100063.25
2023-05-23T12:08:49.013Z,100064.22
2023-05-23T12:11:17.836Z,100065.56
2023-05-23T12:13:46.900Z,100056.59
2023-05-23T12:16:17.916Z,100059.91
2023-05-23T12:18:46.141Z,100059.59
2023-05-23T12:21:13.806Z,100056.66
2023-05-23T12:23:43.075Z,100050.06
2023-05-23T12:26:10.946Z,100057.34
2023-05-23T12:28:45.009Z,100050.34
2023-05-23T12:31:21.433Z,100043.56
2023-05-23T12:33:52.981Z,100049.59
2023-05-23T12:36:29.598Z,100050.84
2023-05-23T12:39:06.050Z,100042.50
2023-05-23T12:41:34.478Z,100043.66
2023-05-23T12:44:04.060Z,100038.47
2023-05-23T12:46:31.816Z,100040.81
2023-05-23T12:48:59.956Z,100038.75
2023-05-23T12:51:27.684Z,100034.00
2023-05-23T12:53:57.287Z,100033.53
2023-05-23T12:56:25.108Z,100027.84
2023-05-23T12:58:54.078Z,100024.81
2023-05-23T13:01:22.361Z,100023.38
2023-05-23T13:03:50.604Z,100022.63
2023-05-23T13:06:18.367Z,100018.38
2023-05-23T13:08:46.809Z,100023.59
2023-05-23T13:11:14.617Z,100018.22
2023-05-23T13:13:42.764Z,100019.78
2023-05-23T13:16:10.600Z,100021.25
2023-05-23T13:18:39.003Z,100007.69
2023-05-23T13:21:07.339Z,100002.69
2023-05-23T13:23:36.728Z,100001.19
2023-05-23T13:26:04.970Z,100013.47
2023-05-23T13:28:33.979Z,100005.91
2023-05-23T13:31:03.475Z,100003.72
2023-05-23T13:33:31.877Z,99999.88
2023-05-23T13:35:59.653Z,99998.78
2023-05-23T13:38:27.910Z,99999.97
2023-05-23T13:40:55.792Z,100000.63
2023-05-23T13:43:24.334Z,99997.97
2023-05-23T13:45:52.750Z,99995.91
2023-05-23T13:48:20.747Z,100004.75
2023-05-23T13:50:48.655Z,99997.97
2023-05-23T13:53:17.125Z,99995.00
2023-05-23T13:55:48.124Z,99993.22
2023-05-23T13:58:16.166Z,99990.75
2023-05-23T14:00:44.239Z,99993.88
2023-05-23T14:03:12.825Z,99983.97
2023-05-23T14:05:40.619Z,99991.78
2023-05-23T14:08:08.902Z,99982.13
2023-05-23T14:10:36.590Z,99984.56
2023-05-23T14:13:04.753Z,99985.25
2023-05-23T14:15:34.501Z,99983.00
2023-05-23T14:18:02.783Z,99985.72
2023-05-23T14:20:30.716Z,99987.41
2023-05-23T14:22:58.769Z,99983.25
2023-05-23T14:25:26.611Z,99978.69
2023-05-23T14:27:55.728Z,99977.63
2023-05-23T14:30:23.662Z,99973.53
2023-05-23T14:32:51.770Z,99977.50
2023-05-23T14:35:19.623Z,99969.19
2023-05-23T14:37:47.659Z,99966.28
2023-05-23T14:40:16.391Z,99975.69
2023-05-23T14:42:44.469Z,99971.13
2023-05-23T14:45:12.424Z,99962.59
2023-05-23T14:47:40.459Z,99971.59
2023-05-23T14:50:08.872Z,99961.69
2023-05-23T14:52:36.856Z,99957.66
2023-05-23T14:55:04.881Z,99970.19
2023-05-23T14:57:33.388Z,99954.63
2023-05-23T15:00:03.284Z,99964.13
2023-05-23T15:02:33.848Z,99968.50
2023-05-23T15:05:01.912Z,99967.97
2023-05-23T15:07:30.060Z,99965.50
2023-05-23T15:09:58.190Z,99960.25
2023-05-23T15:12:26.477Z,99948.97
2023-05-23T15:14:54.623Z,99958.00
2023-05-23T15:17:25.059Z,99955.22
2023-05-23T15:19:56.963Z,99948.47
2023-05-23T15:24:58.366Z,99945.94
2023-05-23T15:27:26.415Z,99948.16
2023-05-23T15:29:54.217Z,99943.44
2023-05-23T15:32:22.576Z,99949.47
2023-05-23T15:34:50.491Z,99952.75
2023-05-23T15:37:18.832Z,99954.13
2023-05-23T15:39:47.188Z,99949.84
2023-05-23T15:42:15.758Z,99949.50
2023-05-23T15:44:43.551Z,99946.13
2023-05-23T15:47:11.774Z,99950.53
2023-05-23T15:49:39.485Z,99937.78
2023-05-23T15:52:07.564Z,99944.81
2023-05-23T15:54:35.410Z,99933.94
2023-05-23T15:57:03.496Z,99926.16
2023-05-23T15:59:34.273Z,99927.56
2023-05-23T16:02:06.171Z,99923.03
2023-05-23T16:04:36.124Z,99923.69
2023-05-23T16:07:04.960Z,99933.06
2023-05-23T16:09:32.788Z,99926.47
2023-05-23T16:12:00.804Z,99929.44
2023-05-23T16:14:28.556Z,99928.06
2023-05-23T16:16:56.529Z,99916.81
2023-05-23T16:19:24.502Z,99920.16
2023-05-23T16:21:52.492Z,99919.31
2023-05-23T16:24:20.168Z,99914.16
2023-05-23T16:26:48.172Z,99912.75
2023-05-23T16:29:16.022Z,99914.84
2023-05-23T16:31:44.135Z,99917.72
2023-05-23T16:34:11.846Z,99915.69
2023-05-23T16:36:40.392Z,99921.63
2023-05-23T16:39:08.194Z,99912.78
2023-05-23T16:41:36.150Z,99911.81
2023-05-23T16:44:04.077Z,99915.59
2023-05-23T16:46:32.612Z,99912.91
2023-05-23T16:49:00.455Z,99911.81
2023-05-23T16:51:28.464Z,99914.94
2023-05-23T16:53:56.385Z,99907.88
2023-05-23T16:56:24.443Z,99917.75
2023-05-23T16:58:52.305Z,99920.41
2023-05-23T17:01:20.501Z,99927.16
2023-05-23T17:03:48.581Z,99926.47
2023-05-23T17:06:16.773Z,99923.25
2023-05-23T17:08:44.561Z,99923.41
2023-05-23T17:11:12.570Z,99918.84
2023-05-23T17:13:40.682Z,99921.66
2023-05-23T17:16:08.928Z,99912.13
2023-05-23T17:18:36.709Z,99924.75
2023-05-23T17:21:04.756Z,99922.56
2023-05-23T17:23:32.589Z,99920.13
2023-05-23T17:26:00.639Z,99919.16
2023-05-23T17:28:28.392Z,99923.88
2023-05-23T17:30:56.692Z,99915.16
2023-05-23T17:33:24.542Z,99913.13
2023-05-23T17:35:52.563Z,99915.31
2023-05-23T17:38:20.389Z,99919.50
2023-05-23T17:40:48.738Z,99924.66
2023-05-23T17:43:16.603Z,99914.09
2023-05-23T17:45:44.670Z,99928.94
2023-05-23T17:48:12.593Z,99927.59
2023-05-23T17:50:40.730Z,99926.63
2023-05-23T17:53:08.582Z,99935.06
2023-05-23T17:55:36.559Z,99926.53
2023-05-23T17:58:04.369Z,99934.38
2023-05-23T18:00:32.539Z,99936.50
2023-05-23T18:03:01.731Z,99942.84
2023-05-23T18:05:29.781Z,99942.03
2023-05-23T18:07:57.699Z,99941.06
2023-05-23T18:10:26.263Z,99930.94
2023-05-23T18:12:54.019Z,99940.97
2023-05-23T18:15:22.456Z,99938.69
2023-05-23T18:17:53.019Z,99940.75
2023-05-23T18:20:21.637Z,99935.78
2023-05-23T18:22:55.986Z,99938.72
2023-05-23T18:25:27.635Z,99938.25
2023-05-23T18:27:59.106Z,99947.06
2023-05-23T18:30:27.988Z,99943.31
2023-05-23T18:32:56.616Z,99951.03
2023-05-23T18:35:25.845Z,99955.97
2023-05-23T18:37:54.618Z,99959.72
2023-05-23T18:40:24.262Z,99964.09
2023-05-23T18:42:52.306Z,99962.38
2023-05-23T18:45:20.531Z,99967.22
2023-05-23T18:47:48.647Z,99956.59
2023-05-23T18:50:16.877Z,99965.78
2023-05-23T18:52:44.687Z,99966.88
2023-05-23T18:55:12.955Z,99966.28
2023-05-23T18:57:40.906Z,99971.56
2023-05-23T19:00:09.659Z,99971.59
2023-05-23T19:02:39.611Z,99969.16
2023-05-23T19:05:08.269Z,99968.22
2023-05-23T19:07:36.088Z,99972.19
2023-05-23T19:10:04.399Z,99967.22
2023-05-23T19:12:32.131Z,99974.19
2023-05-23T19:15:00.161Z,99978.53
2023-05-23T19:17:28.068Z,99977.31
2023-05-23T19:19:56.133Z,99978.97
2023-05-23T19:22:24.399Z,99979.84
2023-05-23T19:24:52.409Z,99982.34
2023-05-23T19:27:20.141Z,99981.81
2023-05-23T19:29:48.193Z,99987.81
2023-05-23T19:32:16.616Z,99981.75
2023-05-23T19:34:44.811Z,99986.28
2023-05-23T19:37:12.714Z,99997.03
2023-05-23T19:39:45.719Z,99990.97
2023-05-23T19:42:13.753Z,99997.00
2023-05-23T19:44:41.850Z,99995.13
2023-05-23T19:47:09.664Z,99991.66
2023-05-23T19:49:37.818Z,99996.16
2023-05-23T19:52:05.705Z,100002.22
2023-05-23T19:54:33.885Z,100002.94
2023-05-23T19:57:02.230Z,99996.06
2023-05-23T19:59:30.691Z,99999.66
2023-05-23T20:01:58.575Z,99997.34
2023-05-23T20:04:28.513Z,99995.22
2023-05-23T20:06:56.281Z,99999.66
2023-05-23T20:09:24.639Z,99996.81
2023-05-23T20:11:52.808Z,100001.25
2023-05-23T20:14:20.887Z,99998.09
2023-05-23T20:16:48.727Z,99999.00
2023-05-23T20:19:17.128Z,100008.00
2023-05-23T20:21:44.992Z,100001.53
2023-05-23T20:24:15.074Z,100008.94
2023-05-23T20:26:43.184Z,100017.38
2023-05-23T20:29:11.286Z,100013.59
2023-05-23T20:31:39.162Z,100016.75
2023-05-23T20:34:07.465Z,100011.56
2023-05-23T20:36:35.279Z,100016.94
2023-05-23T20:39:03.251Z,100014.41
2023-05-23T20:41:31.079Z,100015.75
2023-05-23T20:44:01.615Z,100015.66
2023-05-23T20:46:29.620Z,100021.38
2023-05-23T20:48:57.752Z,100022.88
2023-05-23T20:51:25.812Z,100022.25
2023-05-23T20:53:53.734Z,100023.63
2023-05-23T20:56:22.134Z,100022.03
2023-05-23T20:58:50.142Z,100019.47
2023-05-23T21:01:18.165Z,100018.63
2023-05-23T21:03:46.203Z,100016.84
2023-05-23T21:06:14.381Z,100021.13
2023-05-23T21:08:42.521Z,99987.75
2023-05-23T21:11:10.253Z,100015.19
2023-05-23T21:13:39.889Z,100017.50
2023-05-23T21:16:08.771Z,100013.03
2023-05-23T21:18:36.796Z,100019.06
2023-05-23T21:21:05.333Z,100015.72
2023-05-23T21:23:33.384Z,100007.97
2023-05-23T21:26:01.204Z,100011.16
2023-05-23T21:28:29.315Z,100013.03
2023-05-23T21:30:57.615Z,100012.56
2023-05-23T21:33:25.727Z,100005.56
2023-05-23T21:35:53.395Z,100009.25
2023-05-23T21:38:21.394Z,100015.09
2023-05-23T21:40:49.132Z,100021.88
2023-05-23T21:43:17.197Z,100017.19
2023-05-23T21:45:44.905Z,100020.19
2023-05-23T21:48:13.310Z,100018.03
2023-05-23T21:50:41.144Z,100020.28
2023-05-23T21:53:09.643Z,100024.25
2023-05-23T21:55:37.382Z,100026.72
2023-05-23T21:58:05.727Z,100031.25
2023-05-23T22:00:33.778Z,100025.19
2023-05-23T22:03:01.860Z,100027.84
2023-05-23T22:05:29.934Z,100029.91
2023-05-23T22:07:57.848Z,100024.47
2023-05-23T22:10:25.473Z,100028.72
2023-05-23T22:12:53.401Z,100023.44
2023-05-23T22:15:21.132Z,100022.50
2023-05-23T22:17:49.043Z,100016.91
2023-05-23T22:20:16.831Z,100007.88
2023-05-23T22:22:44.811Z,100010.41
2023-05-23T22:25:12.489Z,100013.06
2023-05-23T22:27:40.563Z,100002.47
2023-05-23T22:30:08.642Z,100013.91
2023-05-23T22:32:36.611Z,100016.66
2023-05-23T22:35:04.323Z,100010.84
2023-05-23T22:37:32.106Z,100020.09
2023-05-23T22:39:59.774Z,100014.44
2023-05-23T22:42:27.611Z,100012.22
2023-05-23T22:44:55.206Z,100013.91
2023-05-23T22:47:23.775Z,100018.72
2023-05-23T22:49:56.472Z,100020.06
2023-05-23T22:52:24.905Z,100017.59
2023-05-23T22:54:52.604Z,100016.56
2023-05-23T22:57:20.496Z,100024.28
2023-05-23T22:59:48.109Z,100022.09
2023-05-23T23:02:16.068Z,100022.31
2023-05-23T23:04:44.361Z,100018.50
2023-05-23T23:07:12.242Z,100023.25
2023-05-23T23:09:39.925Z,100024.78
2023-05-23T23:12:07.822Z,100022.97
2023-05-23T23:14:35.474Z,100020.22
2023-05-23T23:17:03.605Z,100019.19
2023-05-23T23:19:31.302Z,100009.91
2023-05-23T23:21:59.209Z,100014.09
2023-05-23T23:24:26.835Z,100018.88
2023-05-23T23:26:54.728Z,100011.13
2023-05-23T23:29:22.458Z,100000.31
2023-05-23T23:31:50.600Z,99997.78
2023-05-23T23:34:18.459Z,100006.78
2023-05-23T23:36:46.421Z,100008.69
2023-05-23T23:39:14.093Z,99997.56
2023-05-23T23:41:42.051Z,100000.38
2023-05-23T23:44:10.006Z,100002.06
2023-05-23T23:46:38.163Z,100000.88
2023-05-23T23:49:06.096Z,99994.44
2023-05-23T23:51:34.053Z,99997.63
2023-05-23T23:54:02.004Z,99994.66
2023-05-23T23:56:30.031Z,99998.88
2023-05-23T23:58:57.684Z,99995.28
